Time;durP1;ratioP1;P1;durP2;ratioP2;P2;SDS_P1;SDS_P2;PMS_P1;PMS_P2;Temp;Humidity;BMP_temperature;BMP_pressure;BME280_temperature;BME280_humidity;BME280_pressure;Samples;Min_cycle;Max_cycle;Signal;HPM_P1;HPM_P2
2023/06/16 00:01:53;;;;;;;5.97;4.23;;;17.90;99.90;;;;;;5050737;28;20312;-88
2023/06/16 00:04:25;;;;;;;5.13;4.10;;;17.80;99.90;;;;;;5039621;28;20336;-89
2023/06/16 00:06:56;;;;;;;7.47;4.27;;;17.80;99.90;;;;;;5033618;28;20205;-86
2023/06/16 00:09:25;;;;;;;9.83;3.97;;;17.70;99.90;;;;;;5050799;28;20231;-89
2023/06/16 00:11:54;;;;;;;6.13;4.20;;;17.70;99.90;;;;;;5042921;28;20236;-86
2023/06/16 00:14:22;;;;;;;5.37;4.20;;;17.70;99.90;;;;;;5044330;28;20940;-87
2023/06/16 00:16:49;;;;;;;7.80;4.33;;;17.60;99.90;;;;;;5036178;28;20232;-89
2023/06/16 00:19:17;;;;;;;6.77;4.20;;;17.60;99.90;;;;;;5040802;28;20288;-88
2023/06/16 00:21:45;;;;;;;8.00;4.33;;;17.60;99.90;;;;;;5022504;28;20311;-89
2023/06/16 00:24:21;;;;;;;7.03;4.33;;;17.50;99.90;;;;;;5043418;28;20363;-87
2023/06/16 00:26:51;;;;;;;6.83;4.60;;;17.40;99.90;;;;;;5044412;28;20216;-88
2023/06/16 00:29:18;;;;;;;8.80;4.33;;;17.40;99.90;;;;;;5038136;28;20686;-88
2023/06/16 00:31:46;;;;;;;7.37;4.57;;;17.30;99.90;;;;;;5053561;28;20216;-88
2023/06/16 00:34:16;;;;;;;8.00;4.37;;;17.20;99.90;;;;;;5039074;28;20618;-88
2023/06/16 00:36:43;;;;;;;7.57;4.23;;;17.20;99.90;;;;;;5055259;28;20223;-88
2023/06/16 00:39:10;;;;;;;6.20;4.53;;;17.00;99.90;;;;;;5036644;28;20220;-88
2023/06/16 00:41:37;;;;;;;6.57;4.50;;;17.10;99.90;;;;;;5041305;28;20245;-87
2023/06/16 00:44:05;;;;;;;5.83;4.10;;;17.10;99.90;;;;;;5035758;28;20662;-86
2023/06/16 00:46:36;;;;;;;7.73;4.47;;;17.00;99.90;;;;;;5035467;28;20506;-88
2023/06/16 00:49:10;;;;;;;7.97;4.70;;;17.00;99.90;;;;;;5017877;28;20233;-86
2023/06/16 00:51:38;;;;;;;8.33;4.10;;;17.00;99.90;;;;;;5046659;28;20299;-87
2023/06/16 00:54:07;;;;;;;9.93;4.83;;;17.00;99.90;;;;;;5033202;28;20235;-89
2023/06/16 00:56:34;;;;;;;7.57;5.17;;;16.90;99.90;;;;;;5022834;28;20294;-87
2023/06/16 00:59:02;;;;;;;7.77;4.23;;;16.90;99.90;;;;;;5033535;28;20692;-88
2023/06/16 01:01:30;;;;;;;8.43;5.07;;;16.90;99.90;;;;;;5052916;28;20685;-88
2023/06/16 01:04:04;;;;;;;5.90;4.30;;;16.90;99.90;;;;;;5054855;28;20220;-89
2023/06/16 01:06:37;;;;;;;5.93;4.47;;;16.80;99.90;;;;;;5028606;28;20205;-89
2023/06/16 01:09:15;;;;;;;6.50;4.40;;;16.80;99.90;;;;;;5032115;28;20229;-87
2023/06/16 01:11:56;;;;;;;8.27;4.63;;;16.80;99.90;;;;;;5032495;28;20293;-87
2023/06/16 01:14:53;;;;;;;8.40;4.93;;;16.80;99.90;;;;;;5032565;28;20214;-86
2023/06/16 01:17:26;;;;;;;8.13;5.27;;;16.80;99.90;;;;;;5042290;28;20197;-87
2023/06/16 01:20:18;;;;;;;7.87;5.33;;;16.70;99.90;;;;;;5043833;28;20868;-87
2023/06/16 01:23:08;;;;;;;7.77;5.37;;;16.70;99.90;;;;;;5036940;28;20278;-88
2023/06/16 01:25:38;;;;;;;8.17;5.17;;;16.60;99.90;;;;;;5038845;28;20206;-88
2023/06/16 01:28:08;;;;;;;8.03;4.80;;;16.60;99.90;;;;;;5023263;28;20269;-90
2023/06/16 01:30:42;;;;;;;8.67;5.13;;;16.50;99.90;;;;;;5031503;28;20311;-88
2023/06/16 01:33:15;;;;;;;10.77;5.10;;;16.40;99.90;;;;;;5032641;28;20237;-88
2023/06/16 01:35:47;;;;;;;8.43;5.70;;;16.40;99.90;;;;;;5043450;28;20202;-89
2023/06/16 01:38:20;;;;;;;7.13;5.20;;;16.30;99.90;;;;;;5034706;28;20569;-87
2023/06/16 01:40:53;;;;;;;6.93;4.70;;;16.30;99.90;;;;;;5031392;28;20582;-88
2023/06/16 01:43:36;;;;;;;9.50;4.90;;;16.20;99.90;;;;;;5020869;28;20214;-89
2023/06/16 01:46:06;;;;;;;7.23;4.90;;;16.20;99.90;;;;;;5036068;28;20206;-89
2023/06/16 01:48:39;;;;;;;8.23;4.90;;;16.20;99.90;;;;;;5048889;28;20261;-88
2023/06/16 01:51:06;;;;;;;6.77;4.67;;;16.10;99.90;;;;;;5019881;28;20220;-87
2023/06/16 01:53:34;;;;;;;9.20;4.97;;;16.10;99.90;;;;;;5042530;28;20224;-88
2023/06/16 01:56:01;;;;;;;7.53;5.30;;;16.10;99.90;;;;;;5052729;28;20639;-87
2023/06/16 01:58:32;;;;;;;10.00;5.10;;;16.00;99.90;;;;;;5032171;28;20210;-87
2023/06/16 02:01:16;;;;;;;6.30;4.40;;;16.00;99.90;;;;;;5039066;28;20267;-89
2023/06/16 02:04:04;;;;;;;8.93;5.73;;;16.00;99.90;;;;;;5039302;28;20213;-87
2023/06/16 02:06:45;;;;;;;7.10;4.60;;;16.00;99.90;;;;;;5037979;28;20203;-88
2023/06/16 02:09:16;;;;;;;6.23;4.40;;;15.90;99.90;;;;;;5040642;28;20228;-87
2023/06/16 02:11:51;;;;;;;7.77;4.63;;;15.90;99.90;;;;;;5024672;28;20315;-88
2023/06/16 02:14:20;;;;;;;8.27;5.07;;;15.80;99.90;;;;;;5051015;28;20919;-89
2023/06/16 02:16:49;;;;;;;6.83;4.50;;;15.90;99.90;;;;;;5046033;28;20244;-90
2023/06/16 02:19:16;;;;;;;7.17;4.53;;;15.80;99.90;;;;;;5041400;28;20677;-87
2023/06/16 02:21:44;;;;;;;6.93;4.33;;;15.80;99.90;;;;;;5031460;28;20244;-88
2023/06/16 02:24:13;;;;;;;5.63;4.37;;;15.80;99.90;;;;;;5033771;28;20228;-88
2023/06/16 02:26:40;;;;;;;5.20;4.30;;;15.80;99.90;;;;;;5035229;28;20212;-88
2023/06/16 02:29:09;;;;;;;8.47;4.80;;;15.70;99.90;;;;;;5045408;28;20205;-88
2023/06/16 02:31:36;;;;;;;6.27;4.40;;;15.60;99.90;;;;;;5032054;28;20255;-87
2023/06/16 02:34:03;;;;;;;6.60;4.50;;;15.70;99.90;;;;;;5021256;28;20218;-88
2023/06/16 02:36:36;;;;;;;5.47;4.50;;;15.60;99.90;;;;;;5025369;28;20205;-87
2023/06/16 02:39:07;;;;;;;7.50;4.80;;;15.60;99.90;;;;;;5027904;28;20220;-89
2023/06/16 02:41:35;;;;;;;6.83;4.77;;;15.60;99.90;;;;;;5040483;28;20298;-88
2023/06/16 02:44:03;;;;;;;6.87;4.77;;;15.60;99.90;;;;;;5049439;28;20209;-86
2023/06/16 02:46:31;;;;;;;7.77;4.83;;;15.50;99.90;;;;;;5043048;28;20639;-87
2023/06/16 02:48:59;;;;;;;6.53;4.83;;;15.50;99.90;;;;;;5051306;28;20213;-88
2023/06/16 02:51:27;;;;;;;7.17;4.63;;;15.40;99.90;;;;;;5040761;28;20267;-89
2023/06/16 02:53:59;;;;;;;8.57;4.97;;;15.40;99.90;;;;;;5027580;28;20222;-87
2023/06/16 02:56:31;;;;;;;7.77;4.80;;;15.40;99.90;;;;;;5049416;28;20209;-90
2023/06/16 02:58:59;;;;;;;6.60;4.87;;;15.50;99.90;;;;;;5011632;28;20214;-88
2023/06/16 03:01:28;;;;;;;7.07;4.53;;;15.30;99.90;;;;;;5029704;28;20222;-90
2023/06/16 03:03:58;;;;;;;5.93;4.87;;;15.30;99.90;;;;;;5030622;28;20208;-90
2023/06/16 03:06:29;;;;;;;9.43;5.10;;;15.20;99.90;;;;;;5039585;28;20210;-89
2023/06/16 03:08:59;;;;;;;8.20;5.00;;;15.10;99.90;;;;;;5024566;28;20257;-88
2023/06/16 03:11:27;;;;;;;7.47;4.97;;;15.10;99.90;;;;;;5043056;28;20209;-87
2023/06/16 03:13:57;;;;;;;8.67;5.30;;;15.10;99.90;;;;;;5032649;28;20211;-91
2023/06/16 03:16:27;;;;;;;7.33;4.90;;;15.10;99.90;;;;;;5030554;28;20243;-87
2023/06/16 03:18:56;;;;;;;7.13;5.03;;;14.80;99.90;;;;;;5047210;28;20608;-88
2023/06/16 03:21:24;;;;;;;8.07;4.73;;;15.00;99.90;;;;;;5031023;28;20228;-87
2023/06/16 03:23:53;;;;;;;6.10;4.60;;;14.90;99.90;;;;;;5049092;28;20275;-89
2023/06/16 03:26:25;;;;;;;8.13;5.30;;;14.90;99.90;;;;;;5034111;28;20219;-87
2023/06/16 03:28:52;;;;;;;8.23;5.13;;;15.10;99.90;;;;;;5050043;28;20209;-88
2023/06/16 03:31:19;;;;;;;7.50;5.13;;;14.90;99.90;;;;;;5029244;28;20224;-86
2023/06/16 03:33:48;;;;;;;7.40;5.20;;;14.80;99.90;;;;;;5038228;28;20977;-86
2023/06/16 03:36:20;;;;;;;6.83;4.70;;;14.80;99.90;;;;;;5029677;28;20193;-87
2023/06/16 03:38:50;;;;;;;7.70;5.03;;;15.00;99.90;;;;;;5054606;28;20618;-89
2023/06/16 03:41:17;;;;;;;9.13;5.30;;;14.90;99.90;;;;;;5050028;28;20294;-88
2023/06/16 03:43:55;;;;;;;8.73;5.30;;;14.90;99.90;;;;;;5035992;28;20210;-86
2023/06/16 03:46:23;;;;;;;5.10;4.60;;;14.90;99.90;;;;;;5043195;28;20246;-86
2023/06/16 03:48:55;;;;;;;6.83;4.90;;;15.00;99.90;;;;;;5053629;28;20227;-88
2023/06/16 03:51:24;;;;;;;8.37;4.97;;;15.00;99.90;;;;;;5034534;28;20274;-87
2023/06/16 03:53:56;;;;;;;7.47;5.10;;;14.90;99.90;;;;;;5032343;28;20221;-86
2023/06/16 03:56:24;;;;;;;7.37;4.70;;;14.90;99.90;;;;;;5031587;28;20215;-88
2023/06/16 03:58:57;;;;;;;8.13;4.80;;;15.00;99.90;;;;;;5019799;28;20278;-87
2023/06/16 04:01:25;;;;;;;5.50;4.77;;;15.00;99.90;;;;;;5020170;28;20221;-86
2023/06/16 04:03:55;;;;;;;6.13;4.23;;;15.00;99.90;;;;;;5035939;28;20209;-87
2023/06/16 04:06:34;;;;;;;6.17;4.90;;;14.80;99.90;;;;;;5040938;28;20207;-87
2023/06/16 04:09:04;;;;;;;7.90;4.80;;;15.10;99.90;;;;;;5060002;28;20280;-87
2023/06/16 04:11:34;;;;;;;7.83;5.00;;;15.20;99.90;;;;;;5039002;28;21055;-86
2023/06/16 04:14:02;;;;;;;6.67;4.27;;;15.20;99.90;;;;;;5023489;28;20194;-88
2023/06/16 04:16:31;;;;;;;9.10;5.13;;;15.20;99.90;;;;;;5029719;28;20842;-88
2023/06/16 04:19:21;;;;;;;6.43;4.20;;;15.20;99.90;;;;;;5042363;28;20205;-89
2023/06/16 04:21:51;;;;;;;6.50;4.83;;;15.30;99.90;;;;;;5023688;28;20594;-90
2023/06/16 04:24:23;;;;;;;6.03;4.50;;;15.30;99.90;;;;;;5048670;28;20193;-90
2023/06/16 04:26:58;;;;;;;8.47;5.10;;;15.40;99.90;;;;;;5039233;28;20205;-89
2023/06/16 04:29:32;;;;;;;5.53;4.30;;;15.40;99.90;;;;;;5035811;28;20686;-90
2023/06/16 04:32:04;;;;;;;6.70;5.23;;;15.40;99.90;;;;;;5047150;28;20321;-89
2023/06/16 04:34:49;;;;;;;8.67;4.80;;;15.50;99.90;;;;;;5039003;28;20781;-91
2023/06/16 04:37:23;;;;;;;8.93;5.13;;;15.50;99.90;;;;;;5049484;28;20606;-90
2023/06/16 04:39:56;;;;;;;11.73;5.27;;;15.70;99.90;;;;;;5047713;28;20195;-86
2023/06/16 04:42:35;;;;;;;8.57;5.77;;;15.70;99.90;;;;;;5048987;28;20241;-91
2023/06/16 04:45:07;;;;;;;8.03;4.73;;;15.70;99.90;;;;;;5061416;28;20207;-87
2023/06/16 04:47:38;;;;;;;9.27;6.17;;;15.70;99.90;;;;;;5037845;28;20205;-84
2023/06/16 04:50:15;;;;;;;9.20;6.23;;;15.80;99.90;;;;;;5038578;28;20296;-86
2023/06/16 04:52:47;;;;;;;8.43;5.40;;;15.80;99.90;;;;;;5042804;28;20205;-86
2023/06/16 04:55:20;;;;;;;7.67;5.87;;;15.90;99.90;;;;;;5052806;28;20214;-88
2023/06/16 04:58:31;;;;;;;6.77;5.43;;;15.90;99.90;;;;;;4979319;28;20308;-90
2023/06/16 05:01:20;;;;;;;12.57;5.60;;;16.00;99.90;;;;;;5040231;28;20396;-89
2023/06/16 05:03:55;;;;;;;13.97;6.40;;;16.00;99.90;;;;;;5067078;28;20269;-93
2023/06/16 05:06:27;;;;;;;9.53;5.90;;;16.10;99.90;;;;;;5050646;28;20201;-90
2023/06/16 05:09:03;;;;;;;8.83;5.73;;;16.20;99.90;;;;;;5052383;28;20211;-91
2023/06/16 05:11:34;;;;;;;9.97;6.57;;;16.30;99.90;;;;;;5038417;28;20231;-88
2023/06/16 05:14:02;;;;;;;9.70;6.20;;;16.40;99.90;;;;;;5050734;28;20288;-87
2023/06/16 05:16:29;;;;;;;8.80;5.70;;;16.60;99.90;;;;;;5069996;28;20261;-90
2023/06/16 05:18:57;;;;;;;13.97;6.17;;;16.70;99.90;;;;;;5068793;28;20240;-91
2023/06/16 05:21:31;;;;;;;9.53;6.53;;;16.80;99.90;;;;;;5066086;28;20205;-90
2023/06/16 05:24:12;;;;;;;12.17;6.73;;;17.00;99.90;;;;;;5058437;28;20209;-88
2023/06/16 05:26:40;;;;;;;8.90;6.40;;;17.50;99.90;;;;;;5052560;28;20210;-91
2023/06/16 05:29:11;;;;;;;9.30;5.80;;;18.60;99.90;;;;;;5046569;28;20205;-91
2023/06/16 05:31:53;;;;;;;11.45;5.78;;;19.60;99.90;;;;;;5047487;28;20208;-92
2023/06/16 05:34:27;;;;;;;8.65;6.07;;;20.90;99.90;;;;;;5067961;28;20274;-92
2023/06/16 05:37:42;;;;;;;7.22;5.05;;;21.90;99.90;;;;;;5050333;28;20200;-93
2023/06/16 05:40:22;;;;;;;7.78;6.05;;;22.90;99.90;;;;;;5066893;28;20235;-92
2023/06/16 05:42:53;;;;;;;10.38;5.45;;;23.90;99.90;;;;;;5049063;28;20232;-91
2023/06/16 05:45:42;;;;;;;8.32;5.18;;;24.90;99.90;;;;;;5031386;28;20215;-92
2023/06/16 05:48:35;;;;;;;11.10;5.60;;;25.70;99.90;;;;;;5033486;28;20205;-92
2023/06/16 05:51:12;;;;;;;11.13;6.57;;;26.50;96.90;;;;;;5033701;28;20213;-93
2023/06/16 05:53:44;;;;;;;10.10;6.07;;;26.80;96.80;;;;;;5050809;28;20197;-92
2023/06/16 05:56:26;;;;;;;9.35;5.85;;;27.40;96.70;;;;;;5048311;28;20216;-85
2023/06/16 05:58:53;;;;;;;9.60;5.53;;;;;;;;;;5045782;28;20209;-88
2023/06/16 06:01:23;;;;;;;7.38;5.30;;;28.00;93.60;;;;;;5060262;28;20201;-90
2023/06/16 06:03:53;;;;;;;9.00;6.00;;;28.40;92.70;;;;;;5044637;28;20868;-88
2023/06/16 06:06:21;;;;;;;8.35;5.35;;;28.70;92.00;;;;;;5028575;28;20206;-87
2023/06/16 06:08:48;;;;;;;6.78;5.15;;;29.10;91.10;;;;;;5044040;28;20657;-89
2023/06/16 06:11:18;;;;;;;7.05;5.22;;;29.50;90.20;;;;;;5037170;28;20557;-87
2023/06/16 06:13:51;;;;;;;7.97;5.32;;;30.00;94.30;;;;;;5044445;28;20692;-92
2023/06/16 06:16:21;;;;;;;7.00;5.05;;;29.90;87.90;;;;;;5036361;28;20224;-91
2023/06/16 06:18:50;;;;;;;8.02;5.30;;;30.70;85.20;;;;;;5032148;28;20216;-86
2023/06/16 06:21:19;;;;;;;6.05;4.63;;;30.70;84.20;;;;;;5047065;28;20210;-90
2023/06/16 06:24:10;;;;;;;7.57;4.93;;;30.90;82.90;;;;;;5054703;28;20614;-90
2023/06/16 06:27:01;;;;;;;6.80;4.22;;;31.30;79.50;;;;;;5033909;28;20218;-90
2023/06/16 06:29:48;;;;;;;7.30;4.57;;;31.40;79.60;;;;;;5021050;28;20205;-90
2023/06/16 06:32:35;;;;;;;4.40;3.75;;;31.60;76.10;;;;;;5042155;28;20199;-89
2023/06/16 06:35:14;;;;;;;6.13;3.97;;;31.80;76.30;;;;;;5036263;28;20197;-91
2023/06/16 06:38:02;;;;;;;4.43;3.55;;;31.90;75.90;;;;;;5037971;28;20204;-89
2023/06/16 06:40:42;;;;;;;5.65;3.90;;;32.20;70.90;;;;;;5025307;28;20233;-89
2023/06/16 06:43:16;;;;;;;5.10;3.30;;;32.40;69.60;;;;;;5018114;28;20249;-89
2023/06/16 06:45:52;;;;;;;6.07;3.58;;;32.60;70.30;;;;;;5041756;28;20201;-91
2023/06/16 06:48:58;;;;;;;7.82;3.78;;;32.70;69.60;;;;;;5055219;28;20216;-90
2023/06/16 06:51:51;;;;;;;5.38;3.42;;;32.90;67.70;;;;;;5028879;28;20600;-90
2023/06/16 06:54:29;;;;;;;5.88;3.40;;;33.20;66.90;;;;;;5030884;28;20217;-89
2023/06/16 06:57:07;;;;;;;6.90;3.38;;;33.30;64.30;;;;;;5040240;28;20263;-89
2023/06/16 06:59:42;;;;;;;4.03;3.38;;;33.50;65.50;;;;;;5045521;28;20204;-87
2023/06/16 07:02:13;;;;;;;8.93;3.40;;;33.60;65.10;;;;;;5037753;28;20248;-85
2023/06/16 07:04:48;;;;;;;6.53;3.00;;;33.70;65.30;;;;;;5031990;28;20205;-89
2023/06/16 07:07:21;;;;;;;5.10;2.90;;;33.70;64.00;;;;;;5042311;28;20600;-90
2023/06/16 07:10:05;;;;;;;4.57;3.15;;;33.50;62.40;;;;;;5042081;28;20247;-89
2023/06/16 07:12:32;;;;;;;4.25;3.17;;;33.50;62.20;;;;;;5049996;28;20201;-89
2023/06/16 07:14:59;;;;;;;3.60;2.90;;;33.40;61.70;;;;;;5032345;28;20213;-90
2023/06/16 07:17:30;;;;;;;4.45;3.15;;;33.50;60.60;;;;;;5033848;28;20236;-88
2023/06/16 07:20:02;;;;;;;4.85;2.95;;;33.50;59.90;;;;;;5032348;28;20201;-89
2023/06/16 07:22:45;;;;;;;3.03;2.78;;;33.60;59.90;;;;;;5031497;28;20224;-89
2023/06/16 07:25:18;;;;;;;3.20;2.88;;;33.50;59.80;;;;;;5022955;28;20583;-89
2023/06/16 07:28:14;;;;;;;4.15;3.40;;;33.40;60.40;;;;;;5033137;28;20729;-86
2023/06/16 07:30:43;;;;;;;3.38;3.05;;;33.30;60.40;;;;;;5032315;28;20958;-91
2023/06/16 07:33:21;;;;;;;4.60;3.63;;;33.20;61.20;;;;;;5049653;28;20759;-90
2023/06/16 07:35:49;;;;;;;3.75;3.15;;;33.30;61.10;;;;;;5030818;28;20209;-87
2023/06/16 07:38:17;;;;;;;4.53;2.92;;;33.40;60.50;;;;;;5053556;28;20292;-93
2023/06/16 07:40:44;;;;;;;5.85;3.50;;;33.60;60.60;;;;;;5032946;28;20213;-91
2023/06/16 07:43:14;;;;;;;5.15;2.80;;;33.80;60.20;;;;;;5032869;28;20320;-91
2023/06/16 07:45:41;;;;;;;4.10;3.35;;;33.90;60.20;;;;;;5038643;28;20240;-89
2023/06/16 07:48:12;;;;;;;5.72;3.33;;;34.00;60.80;;;;;;5021427;28;20203;-88
2023/06/16 07:50:40;;;;;;;3.63;3.03;;;34.10;59.70;;;;;;5026867;28;20292;-91
2023/06/16 07:53:08;;;;;;;5.35;3.15;;;34.10;59.70;;;;;;5015069;28;20225;-87
2023/06/16 07:55:36;;;;;;;4.03;3.20;;;34.10;58.90;;;;;;5025166;28;20292;-83
2023/06/16 07:58:03;;;;;;;4.43;2.95;;;33.90;58.70;;;;;;5016130;28;20273;-87
2023/06/16 08:00:30;;;;;;;4.65;3.05;;;33.90;58.60;;;;;;5008392;28;20205;-86
2023/06/16 08:02:58;;;;;;;3.78;3.10;;;33.70;58.10;;;;;;5018104;28;20303;-91
2023/06/16 08:05:27;;;;;;;4.28;3.45;;;33.70;58.20;;;;;;5027198;28;20591;-88
2023/06/16 08:07:55;;;;;;;3.78;3.08;;;33.60;58.30;;;;;;5024538;28;20212;-88
2023/06/16 08:10:23;;;;;;;3.65;2.90;;;33.60;58.60;;;;;;5014461;28;20908;-90
2023/06/16 08:12:52;;;;;;;3.38;2.80;;;33.60;58.60;;;;;;5007685;28;20562;-88
2023/06/16 08:15:20;;;;;;;3.85;3.10;;;33.70;58.10;;;;;;5010161;28;20229;-89
2023/06/16 08:17:50;;;;;;;3.72;3.10;;;33.80;58.10;;;;;;5022306;28;20213;-90
2023/06/16 08:20:20;;;;;;;4.25;3.13;;;33.90;58.20;;;;;;5023239;28;20231;-90
2023/06/16 08:22:48;;;;;;;4.63;2.88;;;33.80;58.20;;;;;;5026601;28;20227;-88
2023/06/16 08:25:18;;;;;;;3.55;3.17;;;33.70;58.60;;;;;;5045777;28;20201;-89
2023/06/16 08:27:45;;;;;;;7.22;3.15;;;33.80;59.30;;;;;;5031292;28;20210;-89
2023/06/16 08:30:15;;;;;;;4.00;3.08;;;33.90;58.40;;;;;;5020886;28;20209;-89
2023/06/16 08:32:43;;;;;;;5.43;2.78;;;33.90;58.00;;;;;;5015338;28;20205;-88
2023/06/16 08:35:12;;;;;;;4.57;3.63;;;33.90;58.00;;;;;;5012438;28;20213;-90
2023/06/16 08:37:42;;;;;;;4.45;3.20;;;33.90;57.60;;;;;;5017561;28;20662;-89
2023/06/16 08:40:10;;;;;;;4.85;3.30;;;33.70;57.80;;;;;;5031285;28;20198;-89
2023/06/16 08:42:40;;;;;;;3.42;3.13;;;33.70;57.90;;;;;;5046147;28;20241;-87
2023/06/16 08:45:09;;;;;;;3.15;2.83;;;33.70;56.90;;;;;;5037566;28;20197;-89
2023/06/16 08:47:39;;;;;;;4.45;3.08;;;33.40;57.20;;;;;;5045320;28;20258;-88
2023/06/16 08:50:09;;;;;;;5.30;3.03;;;33.50;57.50;;;;;;5037269;28;20259;-89
2023/06/16 08:52:41;;;;;;;3.78;2.90;;;33.50;57.30;;;;;;5038132;28;20216;-91
2023/06/16 08:55:14;;;;;;;3.70;2.92;;;33.50;56.40;;;;;;5038916;28;20200;-91
2023/06/16 08:57:51;;;;;;;3.63;2.83;;;33.50;56.10;;;;;;5037163;28;20627;-88
2023/06/16 09:00:22;;;;;;;3.83;2.85;;;33.50;56.30;;;;;;5054242;28;20283;-89
2023/06/16 09:03:06;;;;;;;3.10;2.53;;;33.40;56.60;;;;;;5029793;28;20257;-94
2023/06/16 09:05:36;;;;;;;3.45;3.10;;;33.20;54.70;;;;;;5039777;28;20197;-90
2023/06/16 09:08:21;;;;;;;;;;;;;;;;;;;;;
2023/06/16 09:11:23;;;;;;;4.07;2.85;;;32.70;54.90;;;;;;5048227;28;20250;-90
2023/06/16 09:13:56;;;;;;;4.80;3.13;;;32.70;56.10;;;;;;5043847;28;20334;-89
2023/06/16 09:16:27;;;;;;;3.50;2.65;;;32.60;55.40;;;;;;5051818;28;20239;-89
2023/06/16 09:18:54;;;;;;;6.38;2.67;;;32.60;55.70;;;;;;5032544;28;20210;-88
2023/06/16 09:21:23;;;;;;;5.32;3.15;;;32.80;55.20;;;;;;5022574;28;20205;-87
2023/06/16 09:23:59;;;;;;;3.78;2.80;;;32.90;55.00;;;;;;5057358;28;20244;-88
2023/06/16 09:26:35;;;;;;;3.33;2.70;;;32.70;54.90;;;;;;5046013;28;20304;-88
2023/06/16 09:29:27;;;;;;;3.85;2.47;;;32.60;54.40;;;;;;5042963;28;20265;-90
2023/06/16 09:32:16;;;;;;;3.60;3.15;;;32.30;54.30;;;;;;5049265;28;20206;-90
2023/06/16 09:34:43;;;;;;;5.07;3.22;;;32.80;55.90;;;;;;5034145;28;20210;-85
2023/06/16 09:37:11;;;;;;;3.67;3.05;;;32.00;55.10;;;;;;5050492;28;20202;-85
2023/06/16 09:39:38;;;;;;;2.67;2.40;;;31.90;54.40;;;;;;5035803;28;20224;-86
2023/06/16 09:42:12;;;;;;;3.78;2.95;;;32.50;55.10;;;;;;5046370;28;20237;-85
2023/06/16 09:44:42;;;;;;;3.20;2.90;;;31.80;55.60;;;;;;5021883;28;20245;-88
2023/06/16 09:47:23;;;;;;;5.45;2.85;;;31.80;55.40;;;;;;5033783;28;20954;-90
2023/06/16 09:49:54;;;;;;;4.97;3.20;;;31.70;55.40;;;;;;5033810;28;20197;-88
2023/06/16 09:52:29;;;;;;;6.03;3.20;;;31.60;54.80;;;;;;5039054;28;20206;-87
2023/06/16 09:54:59;;;;;;;4.22;3.13;;;31.60;54.80;;;;;;5030211;28;20238;-89
2023/06/16 09:57:28;;;;;;;3.05;2.75;;;31.50;55.20;;;;;;5012960;28;20607;-92
2023/06/16 10:00:19;;;;;;;3.80;2.85;;;31.40;55.90;;;;;;5023862;28;20206;-89
2023/06/16 10:02:49;;;;;;;5.90;3.15;;;31.30;55.90;;;;;;5030701;28;20225;-88
2023/06/16 10:05:28;;;;;;;3.92;3.05;;;31.40;55.90;;;;;;5006612;28;20209;-88
2023/06/16 10:07:58;;;;;;;4.25;3.22;;;31.40;55.40;;;;;;5007794;28;20284;-85
2023/06/16 10:10:27;;;;;;;3.85;2.78;;;31.50;55.70;;;;;;5009363;28;20325;-84
2023/06/16 10:12:56;;;;;;;3.90;2.70;;;31.60;55.90;;;;;;5020707;28;20209;-85
2023/06/16 10:15:31;;;;;;;3.85;3.20;;;31.60;55.20;;;;;;5013228;28;20308;-85
2023/06/16 10:18:06;;;;;;;4.25;2.80;;;31.40;54.60;;;;;;5023394;28;20202;-84
2023/06/16 10:20:40;;;;;;;5.63;2.80;;;31.40;54.70;;;;;;5025463;28;20210;-85
2023/06/16 10:23:20;;;;;;;4.22;3.10;;;31.40;54.80;;;;;;5009507;28;20240;-85
2023/06/16 10:25:50;;;;;;;3.70;2.80;;;31.30;54.70;;;;;;5020480;28;20229;-86
2023/06/16 10:28:20;;;;;;;3.15;2.85;;;31.40;54.70;;;;;;4996218;28;20269;-87
2023/06/16 10:30:48;;;;;;;3.30;3.00;;;31.30;54.50;;;;;;5023144;28;20206;-85
2023/06/16 10:33:25;;;;;;;4.80;3.08;;;31.30;54.00;;;;;;5002282;28;20205;-88
2023/06/16 10:35:59;;;;;;;3.90;3.10;;;31.30;54.00;;;;;;5003674;28;20205;-85
2023/06/16 10:39:01;;;;;;;4.55;3.22;;;31.10;54.30;;;;;;4999666;28;20325;-87
2023/06/16 10:41:31;;;;;;;3.97;3.20;;;31.10;54.30;;;;;;5009614;28;20266;-86
2023/06/16 10:44:31;;;;;;;4.35;3.10;;;31.10;54.50;;;;;;5001245;28;20284;-86
2023/06/16 10:47:05;;;;;;;4.60;3.13;;;31.00;53.60;;;;;;4989909;28;20213;-87
2023/06/16 10:49:44;;;;;;;3.78;3.10;;;30.90;53.30;;;;;;5005441;28;20209;-85
2023/06/16 10:52:19;;;;;;;5.68;3.13;;;31.00;54.10;;;;;;5029882;28;20202;-83
2023/06/16 10:54:51;;;;;;;3.75;2.90;;;31.10;54.30;;;;;;5007839;28;20666;-84
2023/06/16 10:57:22;;;;;;;5.53;2.78;;;31.10;54.20;;;;;;5009301;28;20582;-85
2023/06/16 10:59:55;;;;;;;4.07;3.17;;;31.10;54.30;;;;;;5021964;28;20647;-84
2023/06/16 11:02:39;;;;;;;;;;;;;;;;;;;;;
2023/06/16 11:05:14;;;;;;;3.35;2.92;;;30.90;54.10;;;;;;5039120;28;20212;-92
2023/06/16 11:08:05;;;;;;;5.25;3.00;;;30.70;54.30;;;;;;5032734;28;20777;-89
2023/06/16 11:11:07;;;;;;;4.45;2.75;;;30.70;54.20;;;;;;5026706;28;20259;-89
2023/06/16 11:13:38;;;;;;;4.45;3.00;;;30.60;54.40;;;;;;5015042;28;20212;-91
2023/06/16 11:16:09;;;;;;;3.70;2.78;;;30.40;54.50;;;;;;5007061;28;20771;-91
2023/06/16 11:18:37;;;;;;;3.95;2.80;;;30.40;54.00;;;;;;5015726;28;20299;-88
2023/06/16 11:21:10;;;;;;;4.80;3.13;;;30.40;53.60;;;;;;5015611;28;20205;-89
2023/06/16 11:23:41;;;;;;;3.40;2.55;;;30.40;53.60;;;;;;5041324;28;20324;-89
2023/06/16 11:26:17;;;;;;;3.17;2.80;;;30.30;53.10;;;;;;5016204;28;20217;-90
2023/06/16 11:28:54;;;;;;;5.03;2.67;;;30.00;53.00;;;;;;5017509;28;20210;-86
2023/06/16 11:31:21;;;;;;;5.50;2.78;;;30.10;53.50;;;;;;5030359;28;20201;-87
2023/06/16 11:33:53;;;;;;;6.40;2.85;;;30.10;53.10;;;;;;5011240;28;20285;-91
2023/06/16 11:36:23;;;;;;;4.57;2.97;;;30.10;53.50;;;;;;5012897;28;20451;-89
2023/06/16 11:38:57;;;;;;;4.13;2.38;;;30.10;53.30;;;;;;5032853;28;20278;-91
2023/06/16 11:41:32;;;;;;;3.88;3.15;;;30.10;53.00;;;;;;5039328;28;20237;-92
2023/06/16 11:44:00;;;;;;;3.90;2.90;;;30.10;52.90;;;;;;5063490;28;20296;-89
2023/06/16 11:46:33;;;;;;;3.40;2.92;;;30.20;52.80;;;;;;5040822;28;20298;-89
2023/06/16 11:49:01;;;;;;;4.10;2.80;;;30.10;52.60;;;;;;5054633;28;20197;-86
2023/06/16 11:51:29;;;;;;;4.43;2.90;;;30.00;52.50;;;;;;5036528;28;20231;-91
2023/06/16 11:54:02;;;;;;;5.70;2.55;;;30.00;52.80;;;;;;5037978;28;20674;-90
2023/06/16 11:56:34;;;;;;;4.35;2.95;;;30.00;52.40;;;;;;5035828;28;20197;-88
2023/06/16 11:59:09;;;;;;;3.60;2.72;;;30.00;52.60;;;;;;5041710;28;20200;-89
2023/06/16 12:01:42;;;;;;;3.55;2.92;;;30.10;52.80;;;;;;5039780;28;20205;-89
2023/06/16 12:04:11;;;;;;;4.00;3.00;;;30.00;52.60;;;;;;5038956;28;20221;-87
2023/06/16 12:06:40;;;;;;;4.03;3.03;;;29.80;53.10;;;;;;5038091;28;20259;-87
2023/06/16 12:09:09;;;;;;;4.88;2.72;;;29.70;53.00;;;;;;5039847;28;21001;-85
2023/06/16 12:11:55;;;;;;;3.63;3.10;;;29.70;53.40;;;;;;5048020;28;20735;-88
2023/06/16 12:14:38;;;;;;;4.10;2.72;;;29.70;53.50;;;;;;5026510;28;20209;-87
2023/06/16 12:17:07;;;;;;;4.85;3.17;;;29.70;53.30;;;;;;5045268;28;20225;-88
2023/06/16 12:19:35;;;;;;;3.53;2.70;;;29.80;53.60;;;;;;5034781;28;20204;-89
2023/06/16 12:22:07;;;;;;;11.02;3.10;;;29.90;53.80;;;;;;5040012;28;20217;-88
2023/06/16 12:24:42;;;;;;;4.90;2.90;;;29.90;53.50;;;;;;5031791;28;20636;-87
2023/06/16 12:27:21;;;;;;;7.93;3.40;;;29.90;53.20;;;;;;5029164;28;20212;-87
2023/06/16 12:30:04;;;;;;;4.35;2.90;;;30.00;53.40;;;;;;5034749;28;20560;-88
2023/06/16 12:32:36;;;;;;;4.20;3.00;;;30.10;53.60;;;;;;5034489;28;20209;-88
2023/06/16 12:35:05;;;;;;;4.85;2.90;;;30.10;53.70;;;;;;5045316;28;20233;-87
2023/06/16 12:37:32;;;;;;;4.60;2.72;;;30.30;53.20;;;;;;5056246;28;20233;-90
2023/06/16 12:40:11;;;;;;;4.18;2.88;;;30.10;52.70;;;;;;5057895;28;20662;-89
2023/06/16 12:42:40;;;;;;;3.90;2.80;;;30.10;52.90;;;;;;5049489;28;20903;-87
2023/06/16 12:45:10;;;;;;;5.28;3.15;;;30.10;52.40;;;;;;5039169;28;20229;-89
2023/06/16 12:47:42;;;;;;;3.85;2.80;;;30.10;52.80;;;;;;5052215;28;20268;-89
2023/06/16 12:50:14;;;;;;;5.63;2.80;;;30.20;53.20;;;;;;5045262;28;20255;-89
2023/06/16 12:52:47;;;;;;;3.38;2.80;;;30.30;52.70;;;;;;5025756;28;20208;-88
2023/06/16 12:55:23;;;;;;;4.95;3.17;;;30.30;52.00;;;;;;5023370;28;20536;-89
2023/06/16 12:58:02;;;;;;;4.70;2.85;;;30.20;52.00;;;;;;5033302;28;20247;-90
2023/06/16 13:00:29;;;;;;;4.38;3.08;;;30.30;52.00;;;;;;5023114;28;20236;-89
2023/06/16 13:02:56;;;;;;;6.05;3.15;;;30.30;52.30;;;;;;5025700;28;20193;-88
2023/06/16 13:05:31;;;;;;;5.70;2.90;;;30.30;52.30;;;;;;5021445;28;20213;-87
2023/06/16 13:07:59;;;;;;;2.90;2.40;;;30.40;52.10;;;;;;5029313;28;20204;-89
2023/06/16 13:10:27;;;;;;;3.55;2.80;;;30.40;52.40;;;;;;5031982;28;20205;-87
2023/06/16 13:12:54;;;;;;;3.35;2.80;;;30.40;52.30;;;;;;5009247;28;20304;-89
2023/06/16 13:15:21;;;;;;;4.90;2.95;;;30.40;52.60;;;;;;5027054;28;20222;-89
2023/06/16 13:17:54;;;;;;;4.13;2.80;;;30.40;52.60;;;;;;5027070;28;20208;-89
2023/06/16 13:20:22;;;;;;;3.65;2.88;;;30.40;52.70;;;;;;5028278;28;20206;-88